createdAt,value
2022-08-08T00:00:53.737Z,11.77
2022-08-08T00:02:57.677Z,11.77
2022-08-08T00:05:44.183Z,11.48
2022-08-08T00:08:24.478Z,12.57
2022-08-08T00:11:07.843Z,12.93
2022-08-08T00:14:17.549Z,12.25
2022-08-08T00:16:40.167Z,10.88
2022-08-08T00:19:18.790Z,11.32
2022-08-08T00:21:51.221Z,12.00
2022-08-08T00:24:29.751Z,11.35
2022-08-08T00:27:05.820Z,10.95
2022-08-08T00:29:45.377Z,11.63
2022-08-08T00:32:34.274Z,10.95
2022-08-08T00:35:27.187Z,12.30
2022-08-08T00:38:31.371Z,11.55
2022-08-08T00:42:08.064Z,11.30
2022-08-08T00:45:03.413Z,12.45
2022-08-08T00:48:29.874Z,12.25
2022-08-08T00:52:02.515Z,11.90
2022-08-08T00:55:12.836Z,11.93
2022-08-08T00:58:30.712Z,11.65
2022-08-08T01:01:13.862Z,12.25
2022-08-08T01:04:26.777Z,11.95
2022-08-08T01:07:54.808Z,12.05
2022-08-08T01:11:07.846Z,12.20
2022-08-08T01:14:16.477Z,13.07
2022-08-08T01:17:51.435Z,12.43
2022-08-08T01:20:35.843Z,13.55
2022-08-08T01:24:05.408Z,13.20
2022-08-08T01:27:32.641Z,11.95
2022-08-08T01:30:42.720Z,12.93
2022-08-08T01:34:01.804Z,12.93
2022-08-08T01:37:13.647Z,14.35
2022-08-08T01:40:14.738Z,13.88
2022-08-08T01:42:50.222Z,14.57
2022-08-08T01:45:56.094Z,14.23
2022-08-08T01:48:46.215Z,13.57
2022-08-08T01:52:47.154Z,13.85
2022-08-08T01:55:25.475Z,14.05
2022-08-08T01:58:11.127Z,14.15
2022-08-08T02:00:48.524Z,14.43
2022-08-08T02:03:50.510Z,14.13
2022-08-08T02:06:32.391Z,14.57
2022-08-08T02:09:16.267Z,14.95
2022-08-08T02:11:53.007Z,13.77
2022-08-08T02:14:55.696Z,14.77
2022-08-08T02:17:36.771Z,14.23
2022-08-08T02:21:01.312Z,14.57
2022-08-08T02:23:16.280Z,14.60
2022-08-08T02:25:56.299Z,14.80
2022-08-08T02:28:51.525Z,16.42
2022-08-08T02:31:59.623Z,14.90
2022-08-08T02:35:08.061Z,15.10
2022-08-08T02:37:52.486Z,15.00
2022-08-08T02:40:38.223Z,15.32
2022-08-08T02:44:34.986Z,15.13
2022-08-08T02:46:59.347Z,14.90
2022-08-08T02:49:57.846Z,16.48
2022-08-08T02:52:51.691Z,15.70
2022-08-08T02:56:11.154Z,17.08
2022-08-08T02:59:37.038Z,15.63
2022-08-08T03:02:44.193Z,16.65
2022-08-08T03:06:34.233Z,16.20
2022-08-08T03:09:41.354Z,15.57
2022-08-08T03:13:01.415Z,15.95
2022-08-08T03:16:05.140Z,16.70
2022-08-08T03:18:44.991Z,16.40
2022-08-08T03:21:14.664Z,15.20
2022-08-08T03:23:59.431Z,16.58
2022-08-08T03:26:32.731Z,16.35
2022-08-08T03:29:18.822Z,16.08
2022-08-08T03:32:07.220Z,17.23
2022-08-08T03:34:40.015Z,15.38
2022-08-08T03:37:19.898Z,15.48
2022-08-08T03:40:02.381Z,15.18
2022-08-08T03:42:31.886Z,15.73
2022-08-08T03:44:59.663Z,15.27
2022-08-08T03:47:45.239Z,16.25
2022-08-08T03:50:19.957Z,15.63
2022-08-08T03:52:48.676Z,16.65
2022-08-08T03:55:56.720Z,15.73
2022-08-08T03:58:34.813Z,15.65
2022-08-08T04:01:02.027Z,16.48
2022-08-08T04:03:58.805Z,14.13
2022-08-08T04:06:22.347Z,15.35
2022-08-08T04:08:50.709Z,14.48
2022-08-08T04:11:23.370Z,14.73
2022-08-08T04:14:33.007Z,15.52
2022-08-08T04:16:41.406Z,14.52
2022-08-08T04:19:25.282Z,14.80
2022-08-08T04:21:54.273Z,15.60
2022-08-08T04:24:28.344Z,14.98
2022-08-08T04:26:59.265Z,15.32
2022-08-08T04:29:27.756Z,15.32
2022-08-08T04:32:06.803Z,14.80
2022-08-08T04:34:49.277Z,15.25
2022-08-08T04:37:31.887Z,13.90
2022-08-08T04:40:07.006Z,15.05
2022-08-08T04:42:37.308Z,14.73
2022-08-08T04:45:06.882Z,14.73
2022-08-08T04:47:36.643Z,15.80
2022-08-08T04:50:14.468Z,14.75
2022-08-08T04:53:00.451Z,13.65
2022-08-08T04:55:47.468Z,15.05
2022-08-08T04:58:23.014Z,15.13
2022-08-08T05:00:51.750Z,13.85
2022-08-08T05:04:09.568Z,14.27
2022-08-08T05:06:13.070Z,13.57
2022-08-08T05:08:51.488Z,14.07
2022-08-08T05:11:23.720Z,14.35
2022-08-08T05:14:00.792Z,13.68
2022-08-08T05:16:47.753Z,13.38
2022-08-08T05:20:09.526Z,13.40
2022-08-08T05:22:06.165Z,12.85
2022-08-08T05:24:37.401Z,13.48
2022-08-08T05:27:05.757Z,13.38
2022-08-08T05:29:36.818Z,13.30
2022-08-08T05:32:07.404Z,13.77
2022-08-08T05:34:40.972Z,13.55
2022-08-08T05:37:19.358Z,14.18
2022-08-08T05:39:51.064Z,13.38
2022-08-08T05:42:25.794Z,12.50
2022-08-08T05:45:00.437Z,13.25
2022-08-08T05:47:41.692Z,11.98
2022-08-08T05:50:18.669Z,11.50
2022-08-08T05:52:48.435Z,11.88
2022-08-08T05:55:16.263Z,12.57
2022-08-08T05:58:05.662Z,12.07
2022-08-08T06:00:37.498Z,12.13
2022-08-08T06:03:24.764Z,14.00
2022-08-08T06:05:56.660Z,13.07
2022-08-08T06:08:34.852Z,12.90
2022-08-08T06:11:04.325Z,12.70
2022-08-08T06:13:36.046Z,12.27
2022-08-08T06:16:19.118Z,12.13
2022-08-08T06:18:48.183Z,12.95
2022-08-08T06:24:03.529Z,12.10
2022-08-08T06:26:45.486Z,11.77
2022-08-08T06:29:56.603Z,12.27
2022-08-08T06:32:22.517Z,12.10
2022-08-08T06:34:56.425Z,12.50
2022-08-08T06:37:45.679Z,12.57
2022-08-08T06:40:20.933Z,11.98
2022-08-08T06:42:56.211Z,12.85
2022-08-08T06:45:24.347Z,11.55
2022-08-08T06:48:00.756Z,11.50
2022-08-08T06:50:32.073Z,11.65
2022-08-08T06:53:09.982Z,11.80
2022-08-08T06:55:47.162Z,11.52
2022-08-08T06:58:30.985Z,11.18
2022-08-08T07:01:11.795Z,10.85
2022-08-08T07:04:37.863Z,11.52
2022-08-08T07:06:50.311Z,10.45
2022-08-08T07:09:21.532Z,10.65
2022-08-08T07:11:52.265Z,10.88
2022-08-08T07:14:31.135Z,9.40
2022-08-08T07:17:09.250Z,10.02
2022-08-08T07:20:00.059Z,9.00
2022-08-08T07:22:34.595Z,10.05
2022-08-08T07:25:06.468Z,9.30
2022-08-08T07:28:00.767Z,10.20
2022-08-08T07:30:28.514Z,9.75
2022-08-08T07:32:59.448Z,9.75
2022-08-08T07:35:31.617Z,9.07
2022-08-08T07:38:10.472Z,10.13
2022-08-08T07:40:47.424Z,8.82
2022-08-08T07:46:17.853Z,8.85
2022-08-08T07:48:38.860Z,8.13
2022-08-08T07:51:23.188Z,8.85
2022-08-08T07:54:05.498Z,8.02
2022-08-08T07:56:42.547Z,7.40
2022-08-08T07:59:14.086Z,7.65
2022-08-08T08:02:35.445Z,7.85
2022-08-08T08:04:49.253Z,7.90
2022-08-08T08:10:02.903Z,7.30
2022-08-08T08:12:41.191Z,6.88
2022-08-08T08:15:15.723Z,7.43
2022-08-08T08:17:48.364Z,7.53
2022-08-08T08:20:18.745Z,7.82
2022-08-08T08:22:48.114Z,7.05
2022-08-08T08:25:35.829Z,6.65
2022-08-08T08:28:05.562Z,6.70
2022-08-08T08:30:38.648Z,6.72
2022-08-08T08:33:06.850Z,6.93
2022-08-08T08:36:17.849Z,7.35
2022-08-08T08:38:28.918Z,6.68
2022-08-08T08:40:57.238Z,6.40
2022-08-08T08:43:26.678Z,7.03
2022-08-08T08:45:57.748Z,6.68
2022-08-08T08:48:26.588Z,5.60
2022-08-08T08:51:01.217Z,6.00
2022-08-08T08:53:56.432Z,7.45
2022-08-08T08:56:27.703Z,6.55
2022-08-08T08:58:56.795Z,5.60
2022-08-08T09:01:30.633Z,5.80
2022-08-08T09:04:05.947Z,5.72
2022-08-08T09:06:49.978Z,5.35
2022-08-08T09:12:10.424Z,5.10
2022-08-08T09:14:42.341Z,5.05
2022-08-08T09:17:17.388Z,5.30
2022-08-08T09:21:58.840Z,4.30
2022-08-08T09:22:34.885Z,4.43
2022-08-08T09:25:05.357Z,4.50
2022-08-08T09:27:55.811Z,4.15
2022-08-08T09:30:26.687Z,5.18
2022-08-08T09:33:12.341Z,5.35
2022-08-08T09:35:49.006Z,5.55
2022-08-08T09:38:52.528Z,5.20
2022-08-08T09:41:54.960Z,4.43
2022-08-08T09:44:34.648Z,5.22
2022-08-08T09:48:01.917Z,4.90
2022-08-08T09:49:58.934Z,4.80
2022-08-08T09:52:34.378Z,4.30
2022-08-08T09:55:31.116Z,4.20
2022-08-08T09:58:20.332Z,4.28
2022-08-08T10:00:59.752Z,5.00
2022-08-08T10:03:31.416Z,4.13
2022-08-08T10:05:59.602Z,4.22
2022-08-08T10:08:31.867Z,4.50
2022-08-08T10:10:59.618Z,4.80
2022-08-08T10:13:32.265Z,4.68
2022-08-08T10:16:05.168Z,4.45
2022-08-08T10:21:22.739Z,4.93
2022-08-08T10:23:57.928Z,4.72
2022-08-08T10:26:52.405Z,4.20
2022-08-08T10:29:38.387Z,4.80
2022-08-08T10:32:20.684Z,4.68
2022-08-08T10:34:58.548Z,4.75
2022-08-08T10:37:30.235Z,4.53
2022-08-08T10:39:59.941Z,4.80
2022-08-08T10:42:37.562Z,5.03
2022-08-08T10:45:09.125Z,4.15
2022-08-08T10:47:43.538Z,4.45
2022-08-08T10:50:15.401Z,5.05
2022-08-08T10:52:44.514Z,4.40
2022-08-08T10:55:15.439Z,4.45
2022-08-08T10:58:05.968Z,4.30
2022-08-08T11:00:48.813Z,4.55
2022-08-08T11:03:36.311Z,4.18
2022-08-08T11:06:12.340Z,5.13
2022-08-08T11:11:32.325Z,4.75
2022-08-08T11:14:08.257Z,4.50
2022-08-08T11:16:47.253Z,4.22
2022-08-08T11:19:17.122Z,4.82
2022-08-08T11:21:55.213Z,4.22
2022-08-08T11:24:26.404Z,4.50
2022-08-08T11:26:57.369Z,4.63
2022-08-08T11:29:41.759Z,5.10
2022-08-08T11:32:19.472Z,5.00
2022-08-08T11:35:08.884Z,4.82
2022-08-08T11:38:39.602Z,4.80
2022-08-08T11:40:31.585Z,4.93
2022-08-08T11:43:00.863Z,4.22
2022-08-08T11:45:29.755Z,4.50
2022-08-08T11:48:09.821Z,4.82
2022-08-08T11:50:38.272Z,4.50
2022-08-08T11:53:06.752Z,5.05
2022-08-08T11:55:48.082Z,4.88
2022-08-08T11:58:17.256Z,5.00
2022-08-08T12:00:53.761Z,5.18
2022-08-08T12:03:25.008Z,4.50
2022-08-08T12:05:58.470Z,5.38
2022-08-08T12:08:31.479Z,4.70
2022-08-08T12:11:05.723Z,4.65
2022-08-08T12:14:03.354Z,5.00
2022-08-08T12:16:30.302Z,4.97
2022-08-08T12:19:05.789Z,5.18
2022-08-08T12:21:59.800Z,4.65
2022-08-08T12:24:28.315Z,4.93
2022-08-08T12:26:58.635Z,5.15
2022-08-08T12:29:40.640Z,5.15
2022-08-08T12:32:16.901Z,5.32
2022-08-08T12:34:52.941Z,5.07
2022-08-08T12:37:25.850Z,5.38
2022-08-08T12:40:22.614Z,5.00
2022-08-08T12:42:52.045Z,4.95
2022-08-08T12:45:57.829Z,4.97
2022-08-08T12:48:35.947Z,4.75
2022-08-08T12:51:07.833Z,5.10
2022-08-08T12:53:58.544Z,4.72
2022-08-08T12:56:34.365Z,5.15
2022-08-08T12:59:02.225Z,4.78
2022-08-08T13:01:36.822Z,4.80
2022-08-08T13:04:18.540Z,5.05
2022-08-08T13:07:00.951Z,5.32
2022-08-08T13:09:43.198Z,4.80
2022-08-08T13:12:29.600Z,5.25
2022-08-08T13:14:59.982Z,4.97
2022-08-08T13:18:07.900Z,4.68
2022-08-08T13:20:19.396Z,4.63
2022-08-08T13:22:48.690Z,5.40
2022-08-08T13:25:18.368Z,4.77
2022-08-08T13:27:52.603Z,5.28
2022-08-08T13:30:26.369Z,4.90
2022-08-08T13:32:56.510Z,4.57
2022-08-08T13:35:38.077Z,5.18
2022-08-08T13:38:13.518Z,4.60
2022-08-08T13:40:44.996Z,4.75
2022-08-08T13:43:16.128Z,4.63
2022-08-08T13:45:47.154Z,5.03
2022-08-08T13:48:16.865Z,5.10
2022-08-08T13:50:53.873Z,5.00
2022-08-08T13:53:33.823Z,4.63
2022-08-08T13:56:06.213Z,4.70
2022-08-08T13:58:34.341Z,4.80
2022-08-08T14:01:11.745Z,4.78
2022-08-08T14:03:54.505Z,5.25
2022-08-08T14:06:33.709Z,4.55
2022-08-08T14:09:24.568Z,5.25
2022-08-08T14:11:51.707Z,5.05
2022-08-08T14:14:26.171Z,4.70
2022-08-08T14:16:55.498Z,4.95
2022-08-08T14:19:57.857Z,4.80
2022-08-08T14:22:22.787Z,4.72
2022-08-08T14:24:59.736Z,4.63
2022-08-08T14:27:30.782Z,4.88
2022-08-08T14:30:17.409Z,5.00
2022-08-08T14:32:52.946Z,4.70
2022-08-08T14:35:35.404Z,4.75
2022-08-08T14:38:33.334Z,4.72
2022-08-08T14:40:59.355Z,5.28
2022-08-08T14:44:02.335Z,4.68
2022-08-08T14:46:16.725Z,5.05
2022-08-08T14:48:57.129Z,5.03
2022-08-08T14:51:31.163Z,4.90
2022-08-08T14:54:28.440Z,5.30
2022-08-08T14:56:59.151Z,5.72
2022-08-08T14:59:49.996Z,5.28
2022-08-08T15:02:22.845Z,5.30
2022-08-08T15:04:53.778Z,5.28
2022-08-08T15:07:36.915Z,5.93
2022-08-08T15:10:09.942Z,5.32
2022-08-08T15:12:41.579Z,5.57
2022-08-08T15:15:10.739Z,5.40
2022-08-08T15:17:47.957Z,5.63
2022-08-08T15:20:16.695Z,5.60
2022-08-08T15:22:46.744Z,5.72
2022-08-08T15:25:18.036Z,5.55
2022-08-08T15:28:32.696Z,5.20
2022-08-08T15:30:48.828Z,5.53
2022-08-08T15:33:35.191Z,4.93
2022-08-08T15:36:07.027Z,5.57
2022-08-08T15:38:34.786Z,5.63
2022-08-08T15:41:08.589Z,5.35
2022-08-08T15:43:38.472Z,5.25
2022-08-08T15:46:06.331Z,4.93
2022-08-08T15:48:36.344Z,5.20
2022-08-08T15:51:06.078Z,5.45
2022-08-08T15:53:40.564Z,5.35
2022-08-08T15:56:20.306Z,5.53
2022-08-08T15:58:50.378Z,5.05
2022-08-08T16:01:20.939Z,5.40
2022-08-08T16:03:51.628Z,5.10
2022-08-08T16:06:27.648Z,5.20
2022-08-08T16:13:00.045Z,5.22
2022-08-08T16:13:14.780Z,5.03
2022-08-08T16:14:37.039Z,5.50
2022-08-08T16:17:06.110Z,5.43
2022-08-08T16:19:59.970Z,5.28
2022-08-08T16:22:29.953Z,8.80
2022-08-08T16:24:58.477Z,9.68
2022-08-08T16:27:27.014Z,7.90
2022-08-08T16:30:08.721Z,7.35
2022-08-08T16:32:42.820Z,6.10
2022-08-08T16:35:10.582Z,7.18
2022-08-08T16:37:38.480Z,5.80
2022-08-08T16:40:08.113Z,6.57
2022-08-08T16:42:41.147Z,6.63
2022-08-08T16:46:35.475Z,6.63
2022-08-08T16:47:58.353Z,7.05
2022-08-08T16:50:27.280Z,6.90
2022-08-08T16:55:04.910Z,7.13
2022-08-08T16:55:56.066Z,7.57
2022-08-08T16:58:29.363Z,7.72
2022-08-08T17:01:06.285Z,6.85
2022-08-08T17:03:58.474Z,7.65
2022-08-08T17:06:36.421Z,7.38
2022-08-08T17:09:06.194Z,7.10
2022-08-08T17:11:48.244Z,6.85
2022-08-08T17:14:19.678Z,6.88
2022-08-08T17:16:58.637Z,7.82
2022-08-08T17:19:30.322Z,7.43
2022-08-08T17:22:01.654Z,8.93
2022-08-08T17:24:30.844Z,9.48
2022-08-08T17:27:00.110Z,11.27
2022-08-08T17:29:28.558Z,9.07
2022-08-08T17:32:04.444Z,13.07
2022-08-08T17:34:36.139Z,11.45
2022-08-08T17:37:19.115Z,11.07
2022-08-08T17:40:03.781Z,9.40
2022-08-08T17:42:35.841Z,11.55
2022-08-08T17:45:05.479Z,10.43
2022-08-08T17:47:40.186Z,10.93
2022-08-08T17:50:09.949Z,7.28
2022-08-08T17:52:37.858Z,7.07
2022-08-08T17:56:03.696Z,6.90
2022-08-08T17:57:54.812Z,6.20
2022-08-08T18:00:30.253Z,9.07
2022-08-08T18:03:07.622Z,6.93
2022-08-08T18:05:44.086Z,6.55
2022-08-08T18:11:08.389Z,5.68
2022-08-08T18:13:42.120Z,5.95
2022-08-08T18:16:10.981Z,5.85
2022-08-08T18:18:45.591Z,6.20
2022-08-08T18:21:35.371Z,5.75
2022-08-08T18:24:17.434Z,6.47
2022-08-08T18:26:54.231Z,6.53
2022-08-08T18:29:33.128Z,6.32
2022-08-08T18:32:04.128Z,6.55
2022-08-08T18:34:35.469Z,6.85
2022-08-08T18:37:06.677Z,6.72
2022-08-08T18:39:41.365Z,6.68
2022-08-08T18:42:14.352Z,7.30
2022-08-08T18:44:55.546Z,7.28
2022-08-08T18:47:26.081Z,6.30
2022-08-08T18:49:58.356Z,6.35
2022-08-08T18:52:28.154Z,6.05
2022-08-08T18:54:59.218Z,5.75
2022-08-08T19:00:08.437Z,5.82
2022-08-08T19:02:48.571Z,5.72
2022-08-08T19:05:32.485Z,5.75
2022-08-08T19:08:24.490Z,5.70
2022-08-08T19:10:57.421Z,5.70
2022-08-08T19:13:53.857Z,6.00
2022-08-08T19:16:18.453Z,6.00
2022-08-08T19:18:54.460Z,5.80
2022-08-08T19:21:33.286Z,5.63
2022-08-08T19:24:05.706Z,5.97
2022-08-08T19:26:35.051Z,5.55
2022-08-08T19:29:03.175Z,5.57
2022-08-08T19:31:35.070Z,5.25
2022-08-08T19:34:35.883Z,6.40
2022-08-08T19:36:55.414Z,5.78
2022-08-08T19:39:34.816Z,6.25
2022-08-08T19:42:04.015Z,6.25
2022-08-08T19:44:45.685Z,5.82
2022-08-08T19:47:16.066Z,5.78
2022-08-08T19:49:59.690Z,5.65
2022-08-08T19:52:35.114Z,5.65
2022-08-08T19:55:06.573Z,5.35
2022-08-08T19:57:34.321Z,5.70
2022-08-08T20:00:11.441Z,5.97
2022-08-08T20:02:53.829Z,6.00
2022-08-08T20:06:15.656Z,5.95
2022-08-08T20:08:28.532Z,6.03
2022-08-08T20:10:59.824Z,5.90
2022-08-08T20:14:34.809Z,5.63
2022-08-08T20:16:15.602Z,6.28
2022-08-08T20:18:53.125Z,5.85
2022-08-08T20:21:25.076Z,6.28
2022-08-08T20:23:57.471Z,6.90
2022-08-08T20:26:30.318Z,6.63
2022-08-08T20:29:03.186Z,6.03
2022-08-08T20:32:07.030Z,6.28
2022-08-08T20:34:29.834Z,6.30
2022-08-08T20:37:00.706Z,6.43
2022-08-08T20:39:39.338Z,6.57
2022-08-08T20:42:09.560Z,5.95
2022-08-08T20:44:37.790Z,6.22
2022-08-08T20:47:22.840Z,7.65
2022-08-08T20:49:54.532Z,6.50
2022-08-08T20:52:27.433Z,6.90
2022-08-08T20:54:57.438Z,7.07
2022-08-08T20:57:27.059Z,7.03
2022-08-08T20:59:56.119Z,7.18
2022-08-08T21:02:25.434Z,6.50
2022-08-08T21:04:54.681Z,7.32
2022-08-08T21:07:30.898Z,7.00
2022-08-08T21:10:14.860Z,6.78
2022-08-08T21:12:46.275Z,7.10
2022-08-08T21:16:05.233Z,6.97
2022-08-08T21:18:04.928Z,7.50
2022-08-08T21:20:34.429Z,6.88
2022-08-08T21:23:02.930Z,6.53
2022-08-08T21:25:36.173Z,7.68
2022-08-08T21:28:14.694Z,6.53
2022-08-08T21:30:49.644Z,6.88
2022-08-08T21:33:19.899Z,7.03
2022-08-08T21:36:16.421Z,7.43
2022-08-08T21:38:37.439Z,7.88
2022-08-08T21:41:06.944Z,6.82
2022-08-08T21:43:36.032Z,6.88
2022-08-08T21:48:05.750Z,6.90
2022-08-08T21:48:54.319Z,7.57
2022-08-08T21:54:18.529Z,6.90
2022-08-08T21:54:36.674Z,8.20
2022-08-08T21:57:02.714Z,8.00
2022-08-08T22:00:01.439Z,7.53
2022-08-08T22:02:23.082Z,8.25
2022-08-08T22:04:53.066Z,8.80
2022-08-08T22:07:26.180Z,7.85
2022-08-08T22:10:09.747Z,8.23
2022-08-08T22:12:39.430Z,7.38
2022-08-08T22:15:10.310Z,8.60
2022-08-08T22:17:45.012Z,8.48
2022-08-08T22:20:23.750Z,8.63
2022-08-08T22:22:56.076Z,8.50
2022-08-08T22:25:25.028Z,8.55
2022-08-08T22:28:03.561Z,7.93
2022-08-08T22:30:43.979Z,9.02
2022-08-08T22:34:06.792Z,8.40
2022-08-08T22:36:12.355Z,8.93
2022-08-08T22:38:48.242Z,9.23
2022-08-08T22:41:21.796Z,8.38
2022-08-08T22:44:02.592Z,8.98
2022-08-08T22:46:38.692Z,8.50
2022-08-08T22:49:09.277Z,9.63
2022-08-08T22:51:46.197Z,9.07
2022-08-08T22:54:30.624Z,9.40
2022-08-08T22:57:11.528Z,10.25
2022-08-08T22:59:58.971Z,9.10
2022-08-08T23:02:28.008Z,9.73
2022-08-08T23:04:56.391Z,10.00
2022-08-08T23:07:51.446Z,9.43
2022-08-08T23:10:19.601Z,10.20
2022-08-08T23:12:51.717Z,8.75
2022-08-08T23:16:38.416Z,10.52
2022-08-08T23:18:11.928Z,11.15
2022-08-08T23:20:40.489Z,9.50
2022-08-08T23:23:08.471Z,9.52
2022-08-08T23:25:47.820Z,10.45
2022-08-08T23:28:18.033Z,10.68
2022-08-08T23:30:48.337Z,9.85
2022-08-08T23:33:19.490Z,10.38
2022-08-08T23:36:08.338Z,10.50
2022-08-08T23:38:44.321Z,10.30
2022-08-08T23:41:23.269Z,10.15
2022-08-08T23:43:54.068Z,10.50
2022-08-08T23:49:00.667Z,10.95
2022-08-08T23:49:14.317Z,11.38
2022-08-08T23:52:04.462Z,10.63
2022-08-08T23:54:41.377Z,10.90
2022-08-08T23:57:25.414Z,11.55
